createdAt,value
2023-02-07T00:00:17.867Z,41.0
2023-02-07T00:05:17.723Z,41.0
2023-02-07T00:10:17.735Z,40.8
2023-02-07T00:15:17.658Z,40.7
2023-02-07T00:20:18.046Z,40.6
2023-02-07T00:25:17.825Z,40.5
2023-02-07T00:30:17.790Z,40.4
2023-02-07T00:35:18.067Z,40.3
2023-02-07T00:40:17.932Z,40.2
2023-02-07T00:45:17.869Z,40.2
2023-02-07T00:50:17.884Z,39.7
2023-02-07T00:55:17.865Z,39.7
2023-02-07T01:00:17.886Z,39.7
2023-02-07T01:05:17.736Z,39.6
2023-02-07T01:10:18.569Z,39.3
2023-02-07T01:15:17.868Z,39.2
2023-02-07T01:20:17.952Z,39.1
2023-02-07T01:25:17.975Z,38.8
2023-02-07T01:30:17.948Z,38.5
2023-02-07T01:35:18.829Z,38.3
2023-02-07T01:40:18.498Z,37.9
2023-02-07T01:45:18.156Z,37.8
2023-02-07T01:50:18.040Z,37.6
2023-02-07T01:55:18.234Z,37.4
2023-02-07T02:00:18.134Z,37.1
2023-02-07T02:05:18.172Z,37.0
2023-02-07T02:10:18.204Z,36.8
2023-02-07T02:15:18.211Z,36.5
2023-02-07T02:20:18.144Z,36.3
2023-02-07T02:25:18.511Z,36.1
2023-02-07T02:30:18.324Z,35.9
2023-02-07T02:35:18.239Z,35.8
2023-02-07T02:40:18.253Z,35.8
2023-02-07T02:45:18.151Z,35.6
2023-02-07T02:50:18.598Z,35.4
2023-02-07T02:55:16.324Z,35.2
2023-02-07T03:00:16.419Z,34.9
2023-02-07T03:05:16.268Z,34.9
2023-02-07T03:10:16.428Z,34.8
2023-02-07T03:15:16.464Z,34.7
2023-02-07T03:20:16.325Z,34.6
2023-02-07T03:25:16.684Z,34.5
2023-02-07T03:30:16.376Z,34.3
2023-02-07T03:35:17.054Z,34.0
2023-02-07T03:40:16.757Z,33.9
2023-02-07T03:45:16.329Z,34.2
2023-02-07T03:50:16.458Z,34.1
2023-02-07T03:55:16.529Z,34.0
2023-02-07T04:00:16.540Z,34.0
2023-02-07T04:05:16.445Z,33.8
2023-02-07T04:10:16.563Z,33.6
2023-02-07T04:15:16.529Z,33.5
2023-02-07T04:20:16.519Z,33.5
2023-02-07T04:25:16.637Z,33.3
2023-02-07T04:30:16.885Z,33.2
2023-02-07T04:35:16.520Z,33.1
2023-02-07T04:40:16.588Z,33.0
2023-02-07T04:45:16.511Z,33.0
2023-02-07T04:50:16.620Z,32.9
2023-02-07T04:55:17.094Z,32.9
2023-02-07T05:00:17.829Z,32.7
2023-02-07T05:05:17.612Z,32.6
2023-02-07T05:10:17.673Z,32.7
2023-02-07T05:15:17.722Z,32.6
2023-02-07T05:20:17.736Z,32.5
2023-02-07T05:25:17.946Z,32.5
2023-02-07T05:30:17.617Z,32.2
2023-02-07T05:35:19.013Z,32.2
2023-02-07T05:40:17.843Z,32.2
2023-02-07T05:45:17.762Z,32.1
2023-02-07T05:50:17.794Z,32.1
2023-02-07T05:55:17.866Z,32.4
2023-02-07T06:00:17.875Z,32.0
2023-02-07T06:05:18.022Z,31.9
2023-02-07T06:10:18.560Z,31.8
2023-02-07T06:15:17.841Z,31.7
2023-02-07T06:20:17.836Z,31.7
2023-02-07T06:25:20.957Z,31.6
2023-02-07T06:30:18.299Z,31.3
2023-02-07T06:35:18.068Z,31.3
2023-02-07T06:40:18.065Z,31.3
2023-02-07T06:45:18.026Z,31.1
2023-02-07T06:50:17.991Z,31.1
2023-02-07T06:55:18.121Z,31.1
2023-02-07T07:00:18.006Z,30.9
2023-02-07T07:05:18.140Z,30.8
2023-02-07T07:10:18.104Z,30.8
2023-02-07T07:15:18.038Z,30.6
2023-02-07T07:20:18.315Z,30.5
2023-02-07T07:25:18.436Z,30.5
2023-02-07T07:30:18.124Z,30.5
2023-02-07T07:35:19.679Z,30.3
2023-02-07T07:40:18.412Z,30.2
2023-02-07T07:45:18.323Z,30.1
2023-02-07T07:50:18.365Z,30.0
2023-02-07T07:55:18.490Z,29.8
2023-02-07T08:00:18.158Z,29.8
2023-02-07T08:05:16.085Z,29.7
2023-02-07T08:10:16.474Z,29.6
2023-02-07T08:15:16.191Z,29.5
2023-02-07T08:20:16.278Z,29.5
2023-02-07T08:25:16.278Z,29.4
2023-02-07T08:30:16.499Z,29.4
2023-02-07T08:35:16.285Z,29.4
2023-02-07T08:40:19.177Z,29.2
2023-02-07T08:45:16.376Z,29.3
2023-02-07T08:50:16.432Z,29.4
2023-02-07T08:55:16.721Z,29.4
2023-02-07T09:00:16.363Z,29.3
2023-02-07T09:05:16.507Z,29.1
2023-02-07T09:10:16.647Z,28.8
2023-02-07T09:15:16.421Z,28.8
2023-02-07T09:20:16.454Z,28.7
2023-02-07T09:25:16.424Z,28.9
2023-02-07T09:30:16.469Z,28.9
2023-02-07T09:35:17.839Z,28.8
2023-02-07T09:40:16.616Z,28.7
2023-02-07T09:45:16.650Z,28.7
2023-02-07T09:50:16.761Z,28.7
2023-02-07T09:55:16.792Z,28.8
2023-02-07T10:00:16.649Z,28.6
2023-02-07T10:05:16.758Z,28.4
2023-02-07T10:10:16.897Z,28.6
2023-02-07T10:15:16.856Z,28.5
2023-02-07T10:20:16.787Z,28.6
2023-02-07T10:25:16.795Z,28.5
2023-02-07T10:30:16.687Z,28.5
2023-02-07T10:35:16.649Z,28.6
2023-02-07T10:40:16.872Z,28.7
2023-02-07T10:45:16.946Z,28.6
2023-02-07T10:50:24.871Z,28.5
2023-02-07T10:55:16.779Z,28.4
2023-02-07T11:00:17.023Z,28.5
2023-02-07T11:05:16.745Z,28.5
2023-02-07T11:10:17.384Z,28.4
2023-02-07T11:15:17.068Z,28.5
2023-02-07T11:20:16.988Z,28.5
2023-02-07T11:25:16.975Z,28.5
2023-02-07T11:30:16.914Z,28.4
2023-02-07T11:35:17.594Z,28.5
2023-02-07T11:40:16.966Z,28.6
2023-02-07T11:45:16.979Z,28.4
2023-02-07T11:50:17.086Z,28.3
2023-02-07T11:55:17.201Z,28.4
2023-02-07T12:00:17.334Z,28.3
2023-02-07T12:05:17.032Z,28.6
2023-02-07T12:10:17.066Z,28.5
2023-02-07T12:15:17.078Z,28.3
2023-02-07T12:20:17.013Z,28.3
2023-02-07T12:25:17.922Z,28.5
2023-02-07T12:30:17.088Z,28.5
2023-02-07T12:35:17.140Z,28.9
2023-02-07T12:40:17.040Z,28.9
2023-02-07T12:45:17.038Z,28.9
2023-02-07T12:50:17.131Z,29.2
2023-02-07T12:55:17.125Z,29.5
2023-02-07T13:00:17.240Z,29.5
2023-02-07T13:05:17.144Z,29.3
2023-02-07T13:10:17.436Z,29.2
2023-02-07T13:15:17.932Z,29.4
2023-02-07T13:20:17.293Z,29.3
2023-02-07T13:25:17.240Z,29.3
2023-02-07T13:30:17.624Z,29.3
2023-02-07T13:35:18.306Z,29.3
2023-02-07T13:40:20.076Z,29.6
2023-02-07T13:45:17.156Z,29.7
2023-02-07T13:50:17.337Z,29.8
2023-02-07T13:55:17.498Z,29.8
2023-02-07T14:00:17.409Z,29.7
2023-02-07T14:05:17.494Z,29.8
2023-02-07T14:10:17.428Z,29.6
2023-02-07T14:15:17.581Z,29.2
2023-02-07T14:20:17.444Z,29.5
2023-02-07T14:25:17.471Z,29.9
2023-02-07T14:30:17.445Z,29.7
2023-02-07T14:35:17.372Z,29.8
2023-02-07T14:40:17.770Z,29.8
2023-02-07T14:45:17.661Z,29.6
2023-02-07T14:50:17.608Z,29.7
2023-02-07T14:55:18.041Z,29.8
2023-02-07T15:00:17.629Z,29.9
2023-02-07T15:05:17.510Z,30.2
2023-02-07T15:10:17.524Z,29.8
2023-02-07T15:15:17.690Z,29.6
2023-02-07T15:20:17.615Z,30.0
2023-02-07T15:25:17.874Z,29.7
2023-02-07T15:30:17.660Z,29.8
2023-02-07T15:35:18.487Z,30.0
2023-02-07T15:40:17.886Z,29.7
2023-02-07T15:45:24.207Z,29.7
2023-02-07T15:50:17.883Z,30.1
2023-02-07T15:55:17.868Z,30.0
2023-02-07T16:00:17.756Z,29.8
2023-02-07T16:05:17.683Z,30.2
2023-02-07T16:10:20.224Z,30.4
2023-02-07T16:15:17.767Z,30.2
2023-02-07T16:20:17.792Z,30.2
2023-02-07T16:25:17.920Z,30.6
2023-02-07T16:30:17.813Z,30.5
2023-02-07T16:35:17.988Z,30.2
2023-02-07T16:40:17.983Z,30.1
2023-02-07T16:45:17.756Z,30.1
2023-02-07T16:50:17.890Z,30.2
2023-02-07T16:55:17.899Z,30.1
2023-02-07T17:00:18.046Z,29.7
2023-02-07T17:05:17.946Z,29.5
2023-02-07T17:10:18.024Z,29.6
2023-02-07T17:15:18.085Z,29.7
2023-02-07T17:20:17.992Z,29.5
2023-02-07T17:25:18.283Z,29.4
2023-02-07T17:30:18.003Z,29.8
2023-02-07T17:35:18.213Z,29.8
2023-02-07T17:40:18.359Z,29.7
2023-02-07T17:45:18.032Z,29.6
2023-02-07T17:50:18.101Z,29.9
2023-02-07T17:55:18.257Z,30.0
2023-02-07T18:00:18.057Z,30.0
2023-02-07T18:05:18.179Z,29.9
2023-02-07T18:10:18.801Z,29.8
2023-02-07T18:15:18.220Z,29.8
2023-02-07T18:20:18.090Z,30.0
2023-02-07T18:25:18.246Z,30.0
2023-02-07T18:30:18.176Z,30.0
2023-02-07T18:35:18.192Z,30.0
2023-02-07T18:40:18.871Z,29.9
2023-02-07T18:45:16.375Z,29.8
2023-02-07T18:50:16.187Z,29.9
2023-02-07T18:55:16.350Z,30.1
2023-02-07T19:00:16.332Z,30.1
2023-02-07T19:05:16.280Z,30.1
2023-02-07T19:10:16.446Z,30.2
2023-02-07T19:15:16.450Z,30.3
2023-02-07T19:20:16.353Z,30.4
2023-02-07T19:25:16.541Z,30.5
2023-02-07T19:30:16.312Z,30.4
2023-02-07T19:35:16.450Z,30.4
2023-02-07T19:40:16.653Z,30.4
2023-02-07T19:45:16.413Z,30.4
2023-02-07T19:50:16.769Z,30.4
2023-02-07T19:55:16.842Z,30.3
2023-02-07T20:00:16.684Z,30.3
2023-02-07T20:05:16.372Z,30.5
2023-02-07T20:10:16.617Z,30.5
2023-02-07T20:15:16.415Z,30.7
2023-02-07T20:20:16.547Z,30.6
2023-02-07T20:25:17.072Z,30.8
2023-02-07T20:30:17.825Z,30.9
2023-02-07T20:35:16.810Z,31.0
2023-02-07T20:40:16.957Z,30.9
2023-02-07T20:45:16.559Z,30.9
2023-02-07T20:50:16.640Z,30.7
2023-02-07T20:55:18.604Z,30.7
2023-02-07T21:00:16.790Z,31.0
2023-02-07T21:05:16.659Z,31.1
2023-02-07T21:10:16.846Z,31.3
2023-02-07T21:15:16.592Z,31.2
2023-02-07T21:20:16.740Z,31.5
2023-02-07T21:25:16.763Z,31.7
2023-02-07T21:30:17.036Z,31.6
2023-02-07T21:35:16.679Z,31.6
2023-02-07T21:40:16.806Z,31.8
2023-02-07T21:45:17.002Z,31.7
2023-02-07T21:50:16.873Z,32.0
2023-02-07T21:55:16.827Z,32.0
2023-02-07T22:00:17.057Z,31.9
2023-02-07T22:05:16.888Z,32.1
2023-02-07T22:10:17.092Z,32.1
2023-02-07T22:15:16.843Z,32.5
2023-02-07T22:20:16.983Z,32.6
2023-02-07T22:25:17.231Z,32.5
2023-02-07T22:30:16.949Z,32.5
2023-02-07T22:35:16.801Z,32.7
2023-02-07T22:40:17.240Z,32.7
2023-02-07T22:45:16.907Z,32.8
2023-02-07T22:50:17.012Z,32.8
2023-02-07T22:55:17.120Z,33.0
2023-02-07T23:00:17.265Z,33.0
2023-02-07T23:05:16.998Z,33.0
2023-02-07T23:10:17.450Z,32.9
2023-02-07T23:15:17.155Z,33.0
2023-02-07T23:20:17.177Z,33.4
2023-02-07T23:25:17.179Z,33.3
2023-02-07T23:30:17.869Z,33.3
2023-02-07T23:35:17.234Z,33.5
2023-02-07T23:40:17.443Z,33.4
2023-02-07T23:45:17.114Z,33.5
2023-02-07T23:50:17.289Z,33.8
2023-02-07T23:55:17.210Z,33.7
